createdAt,value
2023-05-21T00:03:01.559Z,100643.22
2023-05-21T00:06:04.698Z,100637.97
2023-05-21T00:09:08.009Z,100630.16
2023-05-21T00:12:11.098Z,100645.97
2023-05-21T00:15:14.356Z,100646.87
2023-05-21T00:18:17.069Z,100649.56
2023-05-21T00:21:26.031Z,100649.56
2023-05-21T00:24:29.688Z,100652.22
2023-05-21T00:27:32.343Z,100646.97
2023-05-21T00:30:35.114Z,100647.00
2023-05-21T00:33:38.369Z,100645.19
2023-05-21T00:36:45.699Z,100656.56
2023-05-21T00:39:50.961Z,100645.09
2023-05-21T00:42:57.168Z,100641.56
2023-05-21T00:46:00.747Z,100637.09
2023-05-21T00:49:04.190Z,100637.91
2023-05-21T00:52:07.414Z,100639.66
2023-05-21T00:55:11.078Z,100635.25
2023-05-21T00:58:14.478Z,100633.47
2023-05-21T01:01:18.498Z,100633.31
2023-05-21T01:04:24.885Z,100638.56
2023-05-21T01:07:27.814Z,100635.91
2023-05-21T01:10:31.010Z,100628.78
2023-05-21T01:13:39.522Z,100623.41
2023-05-21T01:16:46.448Z,100637.25
2023-05-21T01:19:50.635Z,100635.41
2023-05-21T01:26:00.144Z,100634.09
2023-05-21T01:29:03.343Z,100627.94
2023-05-21T01:32:33.394Z,100634.91
2023-05-21T01:35:41.928Z,100637.44
2023-05-21T01:39:07.774Z,100640.87
2023-05-21T01:42:11.517Z,100633.75
2023-05-21T01:45:18.643Z,100641.63
2023-05-21T01:48:22.408Z,100644.16
2023-05-21T01:51:26.288Z,100643.25
2023-05-21T01:54:30.811Z,100634.47
2023-05-21T01:57:35.989Z,100634.50
2023-05-21T02:00:40.085Z,100639.69
2023-05-21T02:03:43.374Z,100640.47
2023-05-21T02:06:45.890Z,100640.34
2023-05-21T02:09:48.611Z,100640.28
2023-05-21T02:12:51.387Z,100635.88
2023-05-21T02:15:54.928Z,100634.00
2023-05-21T02:18:58.066Z,100630.56
2023-05-21T02:22:00.949Z,100622.63
2023-05-21T02:25:04.705Z,100623.50
2023-05-21T02:28:07.910Z,100624.38
2023-05-21T02:31:10.698Z,100625.97
2023-05-21T02:34:14.319Z,100624.13
2023-05-21T02:37:17.650Z,100631.00
2023-05-21T02:40:20.662Z,100632.66
2023-05-21T02:43:23.221Z,100634.28
2023-05-21T02:46:27.177Z,100624.53
2023-05-21T02:49:30.112Z,100632.34
2023-05-21T02:52:33.494Z,100630.63
2023-05-21T02:55:36.445Z,100626.25
2023-05-21T02:58:39.771Z,100630.75
2023-05-21T03:01:42.500Z,100631.69
2023-05-21T03:04:46.832Z,100640.37
2023-05-21T03:07:57.715Z,100635.03
2023-05-21T03:11:01.289Z,100629.72
2023-05-21T03:14:03.906Z,100627.03
2023-05-21T03:17:07.944Z,100623.34
2023-05-21T03:20:18.736Z,100625.94
2023-05-21T03:23:22.094Z,100624.91
2023-05-21T03:26:27.525Z,100625.88
2023-05-21T03:29:30.809Z,100623.19
2023-05-21T03:32:37.984Z,100617.16
2023-05-21T03:35:42.284Z,100622.41
2023-05-21T03:38:45.353Z,100622.50
2023-05-21T03:41:49.298Z,100626.16
2023-05-21T03:44:52.613Z,100629.78
2023-05-21T03:47:58.291Z,100637.72
2023-05-21T03:51:02.736Z,100639.66
2023-05-21T03:54:05.896Z,100635.38
2023-05-21T03:57:09.548Z,100645.88
2023-05-21T04:00:14.028Z,100640.78
2023-05-21T04:03:18.291Z,100648.81
2023-05-21T04:06:21.871Z,100650.00
2023-05-21T04:09:25.090Z,100658.13
2023-05-21T04:12:28.380Z,100656.44
2023-05-21T04:15:31.379Z,100648.97
2023-05-21T04:18:35.006Z,100652.62
2023-05-21T04:21:39.048Z,100654.44
2023-05-21T04:24:43.671Z,100651.16
2023-05-21T04:27:50.390Z,100648.78
2023-05-21T04:30:53.484Z,100647.37
2023-05-21T04:33:59.675Z,100654.47
2023-05-21T04:37:03.164Z,100651.25
2023-05-21T04:40:11.561Z,100646.19
2023-05-21T04:43:14.689Z,100645.53
2023-05-21T04:46:18.167Z,100641.25
2023-05-21T04:49:23.015Z,100640.69
2023-05-21T04:52:26.963Z,100647.03
2023-05-21T04:55:33.932Z,100644.56
2023-05-21T04:58:37.301Z,100643.84
2023-05-21T05:01:40.096Z,100631.66
2023-05-21T05:04:44.173Z,100644.97
2023-05-21T05:07:48.221Z,100654.72
2023-05-21T05:10:52.130Z,100645.03
2023-05-21T05:13:58.867Z,100641.56
2023-05-21T05:17:02.036Z,100641.63
2023-05-21T05:20:08.369Z,100638.09
2023-05-21T05:23:16.865Z,100640.75
2023-05-21T05:26:21.457Z,100641.63
2023-05-21T05:29:27.128Z,100644.25
2023-05-21T05:32:30.168Z,100648.66
2023-05-21T05:35:33.199Z,100650.28
2023-05-21T05:38:48.031Z,100650.06
2023-05-21T05:41:52.386Z,100656.88
2023-05-21T05:44:57.210Z,100656.63
2023-05-21T05:48:00.997Z,100644.09
2023-05-21T05:51:10.722Z,100649.78
2023-05-21T05:54:14.885Z,100643.59
2023-05-21T05:57:21.283Z,100643.34
2023-05-21T06:00:26.803Z,100627.50
2023-05-21T06:03:33.493Z,100641.84
2023-05-21T06:06:48.775Z,100642.66
2023-05-21T06:09:57.444Z,100622.84
2023-05-21T06:13:08.865Z,100629.91
2023-05-21T06:16:16.290Z,100636.25
2023-05-21T06:19:22.840Z,100633.72
2023-05-21T06:22:33.688Z,100621.75
2023-05-21T06:25:45.071Z,100633.13
2023-05-21T06:28:50.161Z,100621.19
2023-05-21T06:31:53.840Z,100621.78
2023-05-21T06:34:57.819Z,100627.13
2023-05-21T06:38:01.112Z,100623.53
2023-05-21T06:41:08.863Z,100624.22
2023-05-21T06:44:18.722Z,100620.16
2023-05-21T06:47:24.285Z,100620.72
2023-05-21T06:50:27.914Z,100608.41
2023-05-21T06:53:32.222Z,100619.50
2023-05-21T06:56:41.829Z,100609.91
2023-05-21T06:59:45.312Z,100609.19
2023-05-21T07:02:53.142Z,100617.94
2023-05-21T07:06:01.379Z,100605.50
2023-05-21T07:09:06.126Z,100613.91
2023-05-21T07:12:10.028Z,100605.81
2023-05-21T07:15:13.836Z,100601.97
2023-05-21T07:18:22.547Z,100608.50
2023-05-21T07:21:26.142Z,100590.09
2023-05-21T07:24:31.147Z,100588.84
2023-05-21T07:27:36.913Z,100591.38
2023-05-21T07:30:45.008Z,100585.22
2023-05-21T07:33:51.999Z,100581.91
2023-05-21T07:37:02.924Z,100579.56
2023-05-21T07:40:09.238Z,100578.66
2023-05-21T07:43:13.174Z,100584.41
2023-05-21T07:46:18.825Z,100579.34
2023-05-21T07:49:27.828Z,100574.09
2023-05-21T07:52:35.840Z,100585.50
2023-05-21T07:55:47.743Z,100583.69
2023-05-21T07:58:53.762Z,100579.09
2023-05-21T08:02:08.456Z,100584.81
2023-05-21T08:05:19.499Z,100589.66
2023-05-21T08:08:23.625Z,100583.94
2023-05-21T08:11:28.620Z,100578.75
2023-05-21T08:14:36.908Z,100578.88
2023-05-21T08:17:56.893Z,100579.87
2023-05-21T08:21:01.762Z,100581.12
2023-05-21T08:24:08.550Z,100579.28
2023-05-21T08:27:12.906Z,100578.56
2023-05-21T08:30:18.253Z,100582.94
2023-05-21T08:33:23.795Z,100578.75
2023-05-21T08:36:28.377Z,100579.47
2023-05-21T08:39:33.113Z,100583.63
2023-05-21T08:42:45.877Z,100583.50
2023-05-21T08:45:57.701Z,100583.16
2023-05-21T08:49:03.466Z,100574.31
2023-05-21T08:52:13.792Z,100581.59
2023-05-21T08:55:20.060Z,100578.81
2023-05-21T08:58:30.037Z,100586.94
2023-05-21T09:01:35.529Z,100578.88
2023-05-21T09:04:41.938Z,100572.56
2023-05-21T09:08:09.856Z,100582.81
2023-05-21T09:11:16.975Z,100568.25
2023-05-21T09:14:23.353Z,100563.84
2023-05-21T09:17:27.200Z,100569.25
2023-05-21T09:20:40.122Z,100572.53
2023-05-21T09:23:44.827Z,100574.53
2023-05-21T09:26:57.333Z,100575.13
2023-05-21T09:30:13.172Z,100565.44
2023-05-21T09:33:32.115Z,100567.44
2023-05-21T09:36:38.612Z,100566.09
2023-05-21T09:39:47.063Z,100571.25
2023-05-21T09:42:58.089Z,100578.34
2023-05-21T09:46:03.857Z,100571.56
2023-05-21T09:49:25.785Z,100571.53
2023-05-21T09:52:39.138Z,100574.25
2023-05-21T09:55:43.386Z,100573.47
2023-05-21T09:58:47.254Z,100567.22
2023-05-21T10:01:53.220Z,100570.16
2023-05-21T10:05:06.896Z,100564.56
2023-05-21T10:08:13.271Z,100566.75
2023-05-21T10:11:27.454Z,100566.59
2023-05-21T10:14:33.419Z,100557.12
2023-05-21T10:17:38.607Z,100552.84
2023-05-21T10:20:47.105Z,100551.66
2023-05-21T10:23:51.769Z,100560.44
2023-05-21T10:26:54.850Z,100542.34
2023-05-21T10:30:06.101Z,100548.91
2023-05-21T10:33:10.139Z,100546.91
2023-05-21T10:36:18.620Z,100537.47
2023-05-21T10:39:32.078Z,100537.53
2023-05-21T10:42:38.874Z,100526.91
2023-05-21T10:45:51.154Z,100538.22
2023-05-21T10:49:25.918Z,100527.69
2023-05-21T10:53:10.852Z,100533.81
2023-05-21T10:56:23.961Z,100518.06
2023-05-21T10:59:51.120Z,100531.00
2023-05-21T11:02:55.357Z,100524.50
2023-05-21T11:06:06.835Z,100529.59
2023-05-21T11:09:17.866Z,100518.00
2023-05-21T11:12:26.849Z,100518.19
2023-05-21T11:15:30.201Z,100507.16
2023-05-21T11:18:40.080Z,100510.25
2023-05-21T11:21:51.624Z,100502.69
2023-05-21T11:25:03.427Z,100513.56
2023-05-21T11:28:09.603Z,100509.59
2023-05-21T11:31:30.937Z,100511.94
2023-05-21T11:34:46.108Z,100511.87
2023-05-21T11:37:54.175Z,100514.25
2023-05-21T11:41:03.725Z,100509.38
2023-05-21T11:44:11.801Z,100499.06
2023-05-21T11:47:22.927Z,100502.06
2023-05-21T11:50:34.279Z,100505.25
2023-05-21T11:53:41.770Z,100490.78
2023-05-21T11:56:48.475Z,100487.28
2023-05-21T11:59:52.313Z,100495.31
2023-05-21T12:03:09.928Z,100487.87
2023-05-21T12:06:14.897Z,100484.81
2023-05-21T12:09:18.940Z,100476.34
2023-05-21T12:12:50.022Z,100471.69
2023-05-21T12:15:59.179Z,100471.13
2023-05-21T12:19:13.035Z,100467.56
2023-05-21T12:22:19.694Z,100461.16
2023-05-21T12:25:27.909Z,100465.84
2023-05-21T12:28:40.927Z,100461.53
2023-05-21T12:31:49.679Z,100463.16
2023-05-21T12:34:54.904Z,100459.22
2023-05-21T12:38:00.528Z,100454.03
2023-05-21T12:41:12.071Z,100446.47
2023-05-21T12:44:24.909Z,100448.56
2023-05-21T12:47:28.869Z,100450.19
2023-05-21T12:50:33.848Z,100450.78
2023-05-21T12:53:40.826Z,100446.72
2023-05-21T12:56:47.895Z,100434.69
2023-05-21T13:00:00.252Z,100444.84
2023-05-21T13:03:06.376Z,100428.78
2023-05-21T13:06:11.524Z,100430.19
2023-05-21T13:09:21.407Z,100429.63
2023-05-21T13:12:28.133Z,100416.41
2023-05-21T13:15:31.962Z,100428.75
2023-05-21T13:18:35.109Z,100401.97
2023-05-21T13:21:41.962Z,100420.94
2023-05-21T13:24:54.062Z,100413.78
2023-05-21T13:27:58.910Z,100426.81
2023-05-21T13:31:03.603Z,100402.66
2023-05-21T13:34:20.503Z,100398.94
2023-05-21T13:37:23.828Z,100388.56
2023-05-21T13:40:27.124Z,100396.13
2023-05-21T13:43:58.143Z,100400.50
2023-05-21T13:47:11.084Z,100400.50
2023-05-21T13:50:19.104Z,100392.75
2023-05-21T13:53:30.599Z,100379.66
2023-05-21T13:56:33.952Z,100379.28
2023-05-21T13:59:37.367Z,100382.22
2023-05-21T14:02:56.393Z,100379.34
2023-05-21T14:06:03.132Z,100382.28
2023-05-21T14:09:06.766Z,100379.47
2023-05-21T14:12:10.604Z,100389.31
2023-05-21T14:15:17.196Z,100378.88
2023-05-21T14:18:24.533Z,100378.72
2023-05-21T14:21:28.076Z,100387.28
2023-05-21T14:24:37.174Z,100371.16
2023-05-21T14:27:48.149Z,100372.00
2023-05-21T14:30:53.726Z,100372.53
2023-05-21T14:33:58.333Z,100361.53
2023-05-21T14:37:07.083Z,100364.75
2023-05-21T14:40:12.358Z,100357.72
2023-05-21T14:43:19.462Z,100360.59
2023-05-21T14:46:24.714Z,100368.22
2023-05-21T14:49:37.311Z,100362.09
2023-05-21T14:52:43.276Z,100363.34
2023-05-21T14:55:48.131Z,100366.97
2023-05-21T14:58:52.269Z,100361.72
2023-05-21T15:01:58.327Z,100359.41
2023-05-21T15:05:03.377Z,100349.47
2023-05-21T15:08:20.199Z,100341.28
2023-05-21T15:11:24.059Z,100353.34
2023-05-21T15:14:33.844Z,100345.13
2023-05-21T15:17:37.282Z,100345.69
2023-05-21T15:20:47.127Z,100339.31
2023-05-21T15:23:54.310Z,100345.78
2023-05-21T15:26:58.015Z,100348.72
2023-05-21T15:30:03.215Z,100342.69
2023-05-21T15:33:06.680Z,100349.78
2023-05-21T15:36:12.723Z,100344.47
2023-05-21T15:39:15.926Z,100349.00
2023-05-21T15:42:32.297Z,100342.84
2023-05-21T15:45:39.377Z,100350.31
2023-05-21T15:48:42.769Z,100343.22
2023-05-21T15:51:49.124Z,100342.50
2023-05-21T15:54:54.196Z,100344.53
2023-05-21T15:58:08.127Z,100343.84
2023-05-21T16:01:17.233Z,100342.22
2023-05-21T16:04:21.375Z,100343.59
2023-05-21T16:07:27.153Z,100344.16
2023-05-21T16:10:37.115Z,100344.06
2023-05-21T16:13:43.741Z,100346.59
2023-05-21T16:16:50.182Z,100343.03
2023-05-21T16:20:00.271Z,100343.31
2023-05-21T16:23:03.894Z,100335.28
2023-05-21T16:26:09.926Z,100349.59
2023-05-21T16:29:18.073Z,100349.22
2023-05-21T16:32:23.771Z,100353.06
2023-05-21T16:35:28.709Z,100352.34
2023-05-21T16:38:41.168Z,100357.84
2023-05-21T16:41:45.019Z,100354.66
2023-05-21T16:44:53.112Z,100357.31
2023-05-21T16:47:57.179Z,100361.06
2023-05-21T16:51:02.138Z,100371.06
2023-05-21T16:54:06.494Z,100368.69
2023-05-21T16:57:10.391Z,100367.94
2023-05-21T17:00:16.332Z,100368.94
2023-05-21T17:03:26.384Z,100370.19
2023-05-21T17:06:31.777Z,100374.88
2023-05-21T17:09:36.134Z,100375.97
2023-05-21T17:12:39.683Z,100375.25
2023-05-21T17:15:56.196Z,100372.81
2023-05-21T17:19:00.762Z,100374.78
2023-05-21T17:22:11.497Z,100387.31
2023-05-21T17:25:16.901Z,100384.97
2023-05-21T17:28:27.099Z,100387.81
2023-05-21T17:31:33.034Z,100382.63
2023-05-21T17:34:38.081Z,100381.88
2023-05-21T17:37:52.048Z,100387.38
2023-05-21T17:40:59.465Z,100384.91
2023-05-21T17:44:03.465Z,100381.38
2023-05-21T17:47:09.441Z,100383.44
2023-05-21T17:50:14.458Z,100383.63
2023-05-21T17:53:24.137Z,100382.16
2023-05-21T17:56:29.488Z,100385.06
2023-05-21T17:59:39.080Z,100380.06
2023-05-21T18:02:48.169Z,100382.06
2023-05-21T18:05:58.073Z,100372.56
2023-05-21T18:09:10.770Z,100365.84
2023-05-21T18:12:15.159Z,100367.97
2023-05-21T18:15:34.365Z,100372.63
2023-05-21T18:18:40.170Z,100373.81
2023-05-21T18:21:51.233Z,100370.47
2023-05-21T18:25:03.292Z,100363.69
2023-05-21T18:28:11.274Z,100364.81
2023-05-21T18:31:20.126Z,100372.22
2023-05-21T18:34:24.684Z,100367.06
2023-05-21T18:37:30.161Z,100373.44
2023-05-21T18:40:38.739Z,100370.97
2023-05-21T18:43:44.539Z,100380.78
2023-05-21T18:46:53.073Z,100377.34
2023-05-21T18:50:05.167Z,100379.28
2023-05-21T18:53:09.154Z,100375.81
2023-05-21T18:56:15.129Z,100383.06
2023-05-21T18:59:28.170Z,100388.59
2023-05-21T19:02:35.440Z,100393.22
2023-05-21T19:05:38.515Z,100393.47
2023-05-21T19:08:47.094Z,100394.50
2023-05-21T19:11:53.707Z,100398.16
2023-05-21T19:14:59.206Z,100400.06
2023-05-21T19:18:19.111Z,100408.06
2023-05-21T19:21:26.091Z,100406.44
2023-05-21T19:24:34.145Z,100402.06
2023-05-21T19:27:41.082Z,100410.09
2023-05-21T19:30:52.135Z,100409.28
2023-05-21T19:33:56.468Z,100411.97
2023-05-21T19:37:00.195Z,100406.72
2023-05-21T19:40:12.493Z,100406.75
2023-05-21T19:43:23.205Z,100412.97
2023-05-21T19:46:28.282Z,100403.28
2023-05-21T19:49:34.167Z,100413.03
2023-05-21T19:52:46.096Z,100412.19
2023-05-21T19:55:52.169Z,100420.09
2023-05-21T19:59:01.040Z,100418.38
2023-05-21T20:02:23.137Z,100420.16
2023-05-21T20:05:38.127Z,100418.38
2023-05-21T20:08:45.357Z,100421.06
2023-05-21T20:11:55.109Z,100421.94
2023-05-21T20:15:01.011Z,100418.44
2023-05-21T20:18:09.331Z,100417.59
2023-05-21T20:21:25.134Z,100420.28
2023-05-21T20:24:43.281Z,100414.13
2023-05-21T20:27:47.073Z,100420.34
2023-05-21T20:31:00.182Z,100416.81
2023-05-21T20:34:09.168Z,100416.84
2023-05-21T20:37:14.165Z,100421.22
2023-05-21T20:40:17.439Z,100420.34
2023-05-21T20:43:21.754Z,100414.19
2023-05-21T20:46:28.243Z,100413.31
2023-05-21T20:49:33.380Z,100420.37
2023-05-21T20:52:36.396Z,100420.37
2023-05-21T20:55:46.440Z,100426.53
2023-05-21T20:58:52.378Z,100423.00
2023-05-21T21:01:55.871Z,100415.97
2023-05-21T21:05:00.036Z,100421.25
2023-05-21T21:08:05.963Z,100417.72
2023-05-21T21:11:12.883Z,100415.09
2023-05-21T21:14:15.935Z,100416.84
2023-05-21T21:17:19.122Z,100422.09
2023-05-21T21:20:22.693Z,100418.56
2023-05-21T21:23:30.344Z,100426.50
2023-05-21T21:26:34.181Z,100425.59
2023-05-21T21:29:38.491Z,100422.97
2023-05-21T21:32:41.725Z,100422.06
2023-05-21T21:35:44.693Z,100412.38
2023-05-21T21:38:51.149Z,100418.47
2023-05-21T21:41:54.253Z,100410.56
2023-05-21T21:44:57.662Z,100418.44
2023-05-21T21:48:00.276Z,100422.88
2023-05-21T21:51:05.032Z,100421.13
2023-05-21T21:54:09.388Z,100417.59
2023-05-21T21:57:14.383Z,100441.28
2023-05-21T22:00:19.204Z,100439.59
2023-05-21T22:03:22.228Z,100449.31
2023-05-21T22:06:24.946Z,100462.53
2023-05-21T22:09:28.101Z,100475.75
2023-05-21T22:12:31.452Z,100462.56
2023-05-21T22:15:37.271Z,100478.41
2023-05-21T22:18:42.111Z,100475.81
2023-05-21T22:21:46.381Z,100474.09
2023-05-21T22:24:49.233Z,100454.72
2023-05-21T22:27:52.790Z,100447.69
2023-05-21T22:30:55.421Z,100460.00
2023-05-21T22:33:59.145Z,100465.28
2023-05-21T22:37:02.120Z,100462.66
2023-05-21T22:40:09.269Z,100465.28
2023-05-21T22:43:12.486Z,100458.19
2023-05-21T22:46:15.348Z,100464.37
2023-05-21T22:49:19.917Z,100455.56
2023-05-21T22:52:23.006Z,100454.66
2023-05-21T22:55:27.532Z,100468.75
2023-05-21T22:58:30.738Z,100469.62
2023-05-21T23:01:33.616Z,100472.25
2023-05-21T23:04:44.018Z,100470.47
2023-05-21T23:07:52.272Z,100459.88
2023-05-21T23:10:55.714Z,100464.16
2023-05-21T23:13:58.322Z,100469.44
2023-05-21T23:17:04.621Z,100464.09
2023-05-21T23:20:09.001Z,100463.19
2023-05-21T23:23:11.904Z,100455.28
2023-05-21T23:26:14.875Z,100462.28
2023-05-21T23:29:20.362Z,100457.84
2023-05-21T23:32:24.079Z,100449.03
2023-05-21T23:35:27.234Z,100445.50
2023-05-21T23:38:29.965Z,100446.38
2023-05-21T23:41:32.836Z,100441.09
2023-05-21T23:44:35.764Z,100438.44
2023-05-21T23:47:38.911Z,100432.28
2023-05-21T23:50:42.894Z,100435.78
2023-05-21T23:53:47.157Z,100433.13
2023-05-21T23:56:49.778Z,100438.41
2023-05-21T23:59:55.155Z,100435.69
